sensor_id;sensor_type;location;lat;lon;timestamp;pressure;altitude;pressure_sealevel;temperature
18219;BMP180;9234;49.344;11.120;2023-04-03T00:02:16;98265.00;;;4.90
18219;BMP180;9234;49.344;11.120;2023-04-03T00:04:45;98264.00;;;4.80
18219;BMP180;9234;49.344;11.120;2023-04-03T00:07:15;98263.00;;;4.80
18219;BMP180;9234;49.344;11.120;2023-04-03T00:09:43;98261.00;;;4.80
18219;BMP180;9234;49.344;11.120;2023-04-03T00:12:11;98252.00;;;4.80
18219;BMP180;9234;49.344;11.120;2023-04-03T00:14:39;98251.00;;;4.80
18219;BMP180;9234;49.344;11.120;2023-04-03T00:17:07;98264.00;;;4.80
18219;BMP180;9234;49.344;11.120;2023-04-03T00:19:36;98264.00;;;4.80
18219;BMP180;9234;49.344;11.120;2023-04-03T00:22:04;98252.00;;;4.80
18219;BMP180;9234;49.344;11.120;2023-04-03T00:24:34;98263.00;;;4.80
18219;BMP180;9234;49.344;11.120;2023-04-03T00:27:04;98269.00;;;4.80
18219;BMP180;9234;49.344;11.120;2023-04-03T00:29:32;98265.00;;;4.80
18219;BMP180;9234;49.344;11.120;2023-04-03T00:32:01;98246.00;;;4.70
18219;BMP180;9234;49.344;11.120;2023-04-03T00:34:30;98264.00;;;4.70
18219;BMP180;9234;49.344;11.120;2023-04-03T00:36:58;98252.00;;;4.70
18219;BMP180;9234;49.344;11.120;2023-04-03T00:39:27;98247.00;;;4.60
18219;BMP180;9234;49.344;11.120;2023-04-03T00:41:57;98262.00;;;4.60
18219;BMP180;9234;49.344;11.120;2023-04-03T00:47:45;98253.00;;;4.50
18219;BMP180;9234;49.344;11.120;2023-04-03T00:50:13;98272.00;;;4.50
18219;BMP180;9234;49.344;11.120;2023-04-03T00:52:42;98264.00;;;4.50
18219;BMP180;9234;49.344;11.120;2023-04-03T00:55:13;98272.00;;;4.50
18219;BMP180;9234;49.344;11.120;2023-04-03T00:57:45;98270.00;;;4.50
18219;BMP180;9234;49.344;11.120;2023-04-03T01:00:19;98248.00;;;4.40
18219;BMP180;9234;49.344;11.120;2023-04-03T01:02:49;98260.00;;;4.40
18219;BMP180;9234;49.344;11.120;2023-04-03T01:05:20;98257.00;;;4.40
18219;BMP180;9234;49.344;11.120;2023-04-03T01:07:51;98258.00;;;4.40
18219;BMP180;9234;49.344;11.120;2023-04-03T01:10:21;98259.00;;;4.30
18219;BMP180;9234;49.344;11.120;2023-04-03T01:12:52;98262.00;;;4.30
18219;BMP180;9234;49.344;11.120;2023-04-03T01:15:24;98258.00;;;4.30
18219;BMP180;9234;49.344;11.120;2023-04-03T01:17:54;98260.00;;;4.30
18219;BMP180;9234;49.344;11.120;2023-04-03T01:23:52;98252.00;;;4.30
18219;BMP180;9234;49.344;11.120;2023-04-03T01:26:23;98248.00;;;4.30
18219;BMP180;9234;49.344;11.120;2023-04-03T01:28:55;98257.00;;;4.30
18219;BMP180;9234;49.344;11.120;2023-04-03T01:31:28;98251.00;;;4.20
18219;BMP180;9234;49.344;11.120;2023-04-03T01:33:58;98258.00;;;4.20
18219;BMP180;9234;49.344;11.120;2023-04-03T01:36:31;98253.00;;;4.20
18219;BMP180;9234;49.344;11.120;2023-04-03T01:39:00;98242.00;;;4.20
18219;BMP180;9234;49.344;11.120;2023-04-03T01:41:29;98239.00;;;4.20
18219;BMP180;9234;49.344;11.120;2023-04-03T01:44:07;98247.00;;;4.10
18219;BMP180;9234;49.344;11.120;2023-04-03T01:46:35;98255.00;;;4.10
18219;BMP180;9234;49.344;11.120;2023-04-03T01:49:05;98239.00;;;4.10
18219;BMP180;9234;49.344;11.120;2023-04-03T01:51:34;98252.00;;;4.10
18219;BMP180;9234;49.344;11.120;2023-04-03T01:54:02;98257.00;;;4.20
18219;BMP180;9234;49.344;11.120;2023-04-03T01:56:31;98248.00;;;4.10
18219;BMP180;9234;49.344;11.120;2023-04-03T01:58:59;98251.00;;;4.10
18219;BMP180;9234;49.344;11.120;2023-04-03T02:01:28;98244.00;;;4.10
18219;BMP180;9234;49.344;11.120;2023-04-03T02:03:56;98244.00;;;4.10
18219;BMP180;9234;49.344;11.120;2023-04-03T02:06:26;98259.00;;;4.10
18219;BMP180;9234;49.344;11.120;2023-04-03T02:08:54;98255.00;;;4.00
18219;BMP180;9234;49.344;11.120;2023-04-03T02:11:22;98265.00;;;4.00
18219;BMP180;9234;49.344;11.120;2023-04-03T02:13:50;98259.00;;;4.00
18219;BMP180;9234;49.344;11.120;2023-04-03T02:16:19;98274.00;;;4.00
18219;BMP180;9234;49.344;11.120;2023-04-03T02:18:49;98273.00;;;4.00
18219;BMP180;9234;49.344;11.120;2023-04-03T02:21:18;98267.00;;;3.90
18219;BMP180;9234;49.344;11.120;2023-04-03T02:23:49;98279.00;;;3.90
18219;BMP180;9234;49.344;11.120;2023-04-03T02:26:18;98267.00;;;3.90
18219;BMP180;9234;49.344;11.120;2023-04-03T02:28:46;98284.00;;;3.90
18219;BMP180;9234;49.344;11.120;2023-04-03T02:31:15;98271.00;;;3.90
18219;BMP180;9234;49.344;11.120;2023-04-03T02:33:45;98264.00;;;3.90
18219;BMP180;9234;49.344;11.120;2023-04-03T02:36:15;98278.00;;;3.80
18219;BMP180;9234;49.344;11.120;2023-04-03T02:38:50;98275.00;;;3.80
18219;BMP180;9234;49.344;11.120;2023-04-03T02:41:18;98267.00;;;3.80
18219;BMP180;9234;49.344;11.120;2023-04-03T02:43:49;98269.00;;;3.80
18219;BMP180;9234;49.344;11.120;2023-04-03T02:46:17;98262.00;;;3.70
18219;BMP180;9234;49.344;11.120;2023-04-03T02:48:45;98267.00;;;3.70
18219;BMP180;9234;49.344;11.120;2023-04-03T02:51:14;98267.00;;;3.70
18219;BMP180;9234;49.344;11.120;2023-04-03T02:53:42;98269.00;;;3.70
18219;BMP180;9234;49.344;11.120;2023-04-03T02:56:17;98263.00;;;3.70
18219;BMP180;9234;49.344;11.120;2023-04-03T02:58:47;98271.00;;;3.70
18219;BMP180;9234;49.344;11.120;2023-04-03T03:01:17;98266.00;;;3.60
18219;BMP180;9234;49.344;11.120;2023-04-03T03:03:45;98273.00;;;3.60
18219;BMP180;9234;49.344;11.120;2023-04-03T03:06:16;98267.00;;;3.60
18219;BMP180;9234;49.344;11.120;2023-04-03T03:08:44;98271.00;;;3.60
18219;BMP180;9234;49.344;11.120;2023-04-03T03:11:13;98279.00;;;3.60
18219;BMP180;9234;49.344;11.120;2023-04-03T03:13:42;98284.00;;;3.50
18219;BMP180;9234;49.344;11.120;2023-04-03T03:16:11;98273.00;;;3.50
18219;BMP180;9234;49.344;11.120;2023-04-03T03:18:39;98259.00;;;3.50
18219;BMP180;9234;49.344;11.120;2023-04-03T03:21:09;98268.00;;;3.50
18219;BMP180;9234;49.344;11.120;2023-04-03T03:23:38;98265.00;;;3.50
18219;BMP180;9234;49.344;11.120;2023-04-03T03:26:09;98266.00;;;3.50
18219;BMP180;9234;49.344;11.120;2023-04-03T03:28:39;98265.00;;;3.40
18219;BMP180;9234;49.344;11.120;2023-04-03T03:31:10;98265.00;;;3.40
18219;BMP180;9234;49.344;11.120;2023-04-03T03:33:40;98261.00;;;3.40
18219;BMP180;9234;49.344;11.120;2023-04-03T03:36:08;98271.00;;;3.40
18219;BMP180;9234;49.344;11.120;2023-04-03T03:38:37;98265.00;;;3.30
18219;BMP180;9234;49.344;11.120;2023-04-03T03:41:05;98272.00;;;3.30
18219;BMP180;9234;49.344;11.120;2023-04-03T03:43:34;98262.00;;;3.30
18219;BMP180;9234;49.344;11.120;2023-04-03T03:46:05;98255.00;;;3.30
18219;BMP180;9234;49.344;11.120;2023-04-03T03:48:34;98258.00;;;3.20
18219;BMP180;9234;49.344;11.120;2023-04-03T03:51:03;98256.00;;;3.20
18219;BMP180;9234;49.344;11.120;2023-04-03T03:53:35;98268.00;;;3.20
18219;BMP180;9234;49.344;11.120;2023-04-03T03:56:07;98268.00;;;3.20
18219;BMP180;9234;49.344;11.120;2023-04-03T03:58:37;98269.00;;;3.20
18219;BMP180;9234;49.344;11.120;2023-04-03T04:01:07;98272.00;;;3.20
18219;BMP180;9234;49.344;11.120;2023-04-03T04:03:42;98265.00;;;3.20
18219;BMP180;9234;49.344;11.120;2023-04-03T04:06:16;98266.00;;;3.20
18219;BMP180;9234;49.344;11.120;2023-04-03T04:08:45;98271.00;;;3.20
18219;BMP180;9234;49.344;11.120;2023-04-03T04:11:14;98257.00;;;3.20
18219;BMP180;9234;49.344;11.120;2023-04-03T04:13:44;98261.00;;;3.20
18219;BMP180;9234;49.344;11.120;2023-04-03T04:16:14;98269.00;;;3.20
18219;BMP180;9234;49.344;11.120;2023-04-03T04:18:44;98260.00;;;3.20
18219;BMP180;9234;49.344;11.120;2023-04-03T04:21:12;98271.00;;;3.20
18219;BMP180;9234;49.344;11.120;2023-04-03T04:23:41;98285.00;;;3.20
18219;BMP180;9234;49.344;11.120;2023-04-03T04:26:10;98270.00;;;3.20
18219;BMP180;9234;49.344;11.120;2023-04-03T04:28:39;98270.00;;;3.20
18219;BMP180;9234;49.344;11.120;2023-04-03T04:31:07;98280.00;;;3.20
18219;BMP180;9234;49.344;11.120;2023-04-03T04:33:36;98282.00;;;3.20
18219;BMP180;9234;49.344;11.120;2023-04-03T04:36:08;98288.00;;;3.20
18219;BMP180;9234;49.344;11.120;2023-04-03T04:38:37;98275.00;;;3.20
18219;BMP180;9234;49.344;11.120;2023-04-03T04:41:06;98280.00;;;3.20
18219;BMP180;9234;49.344;11.120;2023-04-03T04:43:35;98280.00;;;3.20
18219;BMP180;9234;49.344;11.120;2023-04-03T04:46:06;98285.00;;;3.20
18219;BMP180;9234;49.344;11.120;2023-04-03T04:48:40;98283.00;;;3.20
18219;BMP180;9234;49.344;11.120;2023-04-03T04:51:11;98301.00;;;3.20
18219;BMP180;9234;49.344;11.120;2023-04-03T04:53:40;98296.00;;;3.20
18219;BMP180;9234;49.344;11.120;2023-04-03T04:56:10;98285.00;;;3.10
18219;BMP180;9234;49.344;11.120;2023-04-03T04:58:41;98290.00;;;3.10
18219;BMP180;9234;49.344;11.120;2023-04-03T05:01:10;98294.00;;;3.10
18219;BMP180;9234;49.344;11.120;2023-04-03T05:03:48;98289.00;;;3.10
18219;BMP180;9234;49.344;11.120;2023-04-03T05:06:19;98285.00;;;3.00
18219;BMP180;9234;49.344;11.120;2023-04-03T05:08:47;98288.00;;;3.10
18219;BMP180;9234;49.344;11.120;2023-04-03T05:11:16;98313.00;;;3.10
18219;BMP180;9234;49.344;11.120;2023-04-03T05:13:46;98302.00;;;3.10
18219;BMP180;9234;49.344;11.120;2023-04-03T05:16:14;98301.00;;;3.10
18219;BMP180;9234;49.344;11.120;2023-04-03T05:18:43;98303.00;;;3.10
18219;BMP180;9234;49.344;11.120;2023-04-03T05:21:18;98295.00;;;3.10
18219;BMP180;9234;49.344;11.120;2023-04-03T05:23:47;98303.00;;;3.20
18219;BMP180;9234;49.344;11.120;2023-04-03T05:26:15;98303.00;;;3.20
18219;BMP180;9234;49.344;11.120;2023-04-03T05:28:46;98302.00;;;3.30
18219;BMP180;9234;49.344;11.120;2023-04-03T05:31:15;98310.00;;;3.40
18219;BMP180;9234;49.344;11.120;2023-04-03T05:33:44;98309.00;;;3.40
18219;BMP180;9234;49.344;11.120;2023-04-03T05:36:17;98310.00;;;3.40
18219;BMP180;9234;49.344;11.120;2023-04-03T05:38:50;98321.00;;;3.50
18219;BMP180;9234;49.344;11.120;2023-04-03T05:41:21;98320.00;;;3.60
18219;BMP180;9234;49.344;11.120;2023-04-03T05:43:50;98331.00;;;3.60
18219;BMP180;9234;49.344;11.120;2023-04-03T05:46:20;98324.00;;;3.70
18219;BMP180;9234;49.344;11.120;2023-04-03T05:48:53;98320.00;;;3.70
18219;BMP180;9234;49.344;11.120;2023-04-03T05:51:34;98331.00;;;3.80
18219;BMP180;9234;49.344;11.120;2023-04-03T05:54:17;98319.00;;;3.90
18219;BMP180;9234;49.344;11.120;2023-04-03T05:56:47;98316.00;;;3.90
18219;BMP180;9234;49.344;11.120;2023-04-03T05:59:15;98323.00;;;3.90
18219;BMP180;9234;49.344;11.120;2023-04-03T06:01:44;98328.00;;;4.00
18219;BMP180;9234;49.344;11.120;2023-04-03T06:04:13;98329.00;;;4.00
18219;BMP180;9234;49.344;11.120;2023-04-03T06:06:49;98323.00;;;4.00
18219;BMP180;9234;49.344;11.120;2023-04-03T06:09:19;98329.00;;;4.10
18219;BMP180;9234;49.344;11.120;2023-04-03T06:11:48;98331.00;;;4.20
18219;BMP180;9234;49.344;11.120;2023-04-03T06:14:17;98325.00;;;4.20
18219;BMP180;9234;49.344;11.120;2023-04-03T06:16:46;98336.00;;;4.30
18219;BMP180;9234;49.344;11.120;2023-04-03T06:19:14;98328.00;;;4.30
18219;BMP180;9234;49.344;11.120;2023-04-03T06:21:48;98325.00;;;4.30
18219;BMP180;9234;49.344;11.120;2023-04-03T06:24:18;98326.00;;;4.40
18219;BMP180;9234;49.344;11.120;2023-04-03T06:26:47;98328.00;;;4.50
18219;BMP180;9234;49.344;11.120;2023-04-03T06:29:15;98333.00;;;4.50
18219;BMP180;9234;49.344;11.120;2023-04-03T06:31:45;98330.00;;;4.60
18219;BMP180;9234;49.344;11.120;2023-04-03T06:34:15;98344.00;;;4.70
18219;BMP180;9234;49.344;11.120;2023-04-03T06:36:44;98344.00;;;4.70
18219;BMP180;9234;49.344;11.120;2023-04-03T06:39:17;98342.00;;;4.80
18219;BMP180;9234;49.344;11.120;2023-04-03T06:41:47;98335.00;;;4.80
18219;BMP180;9234;49.344;11.120;2023-04-03T06:44:16;98348.00;;;4.90
18219;BMP180;9234;49.344;11.120;2023-04-03T06:46:45;98344.00;;;5.00
18219;BMP180;9234;49.344;11.120;2023-04-03T06:49:14;98335.00;;;5.00
18219;BMP180;9234;49.344;11.120;2023-04-03T06:51:42;98359.00;;;5.10
18219;BMP180;9234;49.344;11.120;2023-04-03T06:54:11;98349.00;;;5.10
18219;BMP180;9234;49.344;11.120;2023-04-03T06:56:41;98371.00;;;5.20
18219;BMP180;9234;49.344;11.120;2023-04-03T06:59:10;98359.00;;;5.20
18219;BMP180;9234;49.344;11.120;2023-04-03T07:01:40;98366.00;;;5.20
18219;BMP180;9234;49.344;11.120;2023-04-03T07:04:08;98365.00;;;5.20
18219;BMP180;9234;49.344;11.120;2023-04-03T07:06:40;98366.00;;;5.30
18219;BMP180;9234;49.344;11.120;2023-04-03T07:09:09;98373.00;;;5.40
18219;BMP180;9234;49.344;11.120;2023-04-03T07:11:37;98368.00;;;5.50
18219;BMP180;9234;49.344;11.120;2023-04-03T07:14:07;98373.00;;;5.70
18219;BMP180;9234;49.344;11.120;2023-04-03T07:16:36;98371.00;;;5.80
18219;BMP180;9234;49.344;11.120;2023-04-03T07:19:08;98382.00;;;5.90
18219;BMP180;9234;49.344;11.120;2023-04-03T07:21:37;98376.00;;;5.90
18219;BMP180;9234;49.344;11.120;2023-04-03T07:24:06;98401.00;;;6.00
18219;BMP180;9234;49.344;11.120;2023-04-03T07:26:39;98380.00;;;6.10
18219;BMP180;9234;49.344;11.120;2023-04-03T07:29:09;98382.00;;;6.20
18219;BMP180;9234;49.344;11.120;2023-04-03T07:31:39;98388.00;;;6.30
18219;BMP180;9234;49.344;11.120;2023-04-03T07:34:08;98400.00;;;6.40
18219;BMP180;9234;49.344;11.120;2023-04-03T07:36:37;98395.00;;;6.50
18219;BMP180;9234;49.344;11.120;2023-04-03T07:39:05;98390.00;;;6.50
18219;BMP180;9234;49.344;11.120;2023-04-03T07:41:35;98393.00;;;6.60
18219;BMP180;9234;49.344;11.120;2023-04-03T07:44:04;98396.00;;;6.60
18219;BMP180;9234;49.344;11.120;2023-04-03T07:46:34;98394.00;;;6.70
18219;BMP180;9234;49.344;11.120;2023-04-03T07:49:02;98404.00;;;6.70
18219;BMP180;9234;49.344;11.120;2023-04-03T07:51:30;98400.00;;;6.80
18219;BMP180;9234;49.344;11.120;2023-04-03T07:53:59;98398.00;;;6.90
18219;BMP180;9234;49.344;11.120;2023-04-03T07:56:27;98391.00;;;7.00
18219;BMP180;9234;49.344;11.120;2023-04-03T07:58:56;98396.00;;;7.20
18219;BMP180;9234;49.344;11.120;2023-04-03T08:01:24;98410.00;;;7.30
18219;BMP180;9234;49.344;11.120;2023-04-03T08:03:54;98398.00;;;7.30
18219;BMP180;9234;49.344;11.120;2023-04-03T08:06:23;98399.00;;;7.30
18219;BMP180;9234;49.344;11.120;2023-04-03T08:09:08;98401.00;;;7.30
18219;BMP180;9234;49.344;11.120;2023-04-03T08:11:39;98399.00;;;7.30
18219;BMP180;9234;49.344;11.120;2023-04-03T08:14:07;98400.00;;;7.40
18219;BMP180;9234;49.344;11.120;2023-04-03T08:16:43;98414.00;;;7.40
18219;BMP180;9234;49.344;11.120;2023-04-03T08:19:14;98415.00;;;7.60
18219;BMP180;9234;49.344;11.120;2023-04-03T08:21:53;98413.00;;;7.70
18219;BMP180;9234;49.344;11.120;2023-04-03T08:24:22;98406.00;;;7.80
18219;BMP180;9234;49.344;11.120;2023-04-03T08:26:50;98417.00;;;7.90
18219;BMP180;9234;49.344;11.120;2023-04-03T08:29:19;98408.00;;;7.90
18219;BMP180;9234;49.344;11.120;2023-04-03T08:31:48;98419.00;;;8.00
18219;BMP180;9234;49.344;11.120;2023-04-03T08:34:19;98409.00;;;8.10
18219;BMP180;9234;49.344;11.120;2023-04-03T08:36:47;98423.00;;;8.30
18219;BMP180;9234;49.344;11.120;2023-04-03T08:39:17;98407.00;;;8.40
18219;BMP180;9234;49.344;11.120;2023-04-03T08:41:47;98415.00;;;8.40
18219;BMP180;9234;49.344;11.120;2023-04-03T08:44:23;98425.00;;;8.40
18219;BMP180;9234;49.344;11.120;2023-04-03T08:47:04;98416.00;;;8.50
18219;BMP180;9234;49.344;11.120;2023-04-03T08:49:40;98425.00;;;8.60
18219;BMP180;9234;49.344;11.120;2023-04-03T08:52:19;98412.00;;;8.80
18219;BMP180;9234;49.344;11.120;2023-04-03T08:54:53;98419.00;;;9.00
18219;BMP180;9234;49.344;11.120;2023-04-03T08:57:30;98416.00;;;9.00
18219;BMP180;9234;49.344;11.120;2023-04-03T09:00:17;98429.00;;;9.00
18219;BMP180;9234;49.344;11.120;2023-04-03T09:02:48;98430.00;;;9.00
18219;BMP180;9234;49.344;11.120;2023-04-03T09:05:22;98422.00;;;8.90
18219;BMP180;9234;49.344;11.120;2023-04-03T09:07:59;98423.00;;;8.70
18219;BMP180;9234;49.344;11.120;2023-04-03T09:10:33;98434.00;;;8.60
18219;BMP180;9234;49.344;11.120;2023-04-03T09:13:13;98429.00;;;8.70
18219;BMP180;9234;49.344;11.120;2023-04-03T09:15:47;98424.00;;;8.80
18219;BMP180;9234;49.344;11.120;2023-04-03T09:18:22;98431.00;;;9.00
18219;BMP180;9234;49.344;11.120;2023-04-03T09:21:04;98430.00;;;9.10
18219;BMP180;9234;49.344;11.120;2023-04-03T09:23:44;98430.00;;;9.20
18219;BMP180;9234;49.344;11.120;2023-04-03T09:26:18;98414.00;;;9.20
18219;BMP180;9234;49.344;11.120;2023-04-03T09:28:47;98428.00;;;9.20
18219;BMP180;9234;49.344;11.120;2023-04-03T09:31:22;98416.00;;;9.20
18219;BMP180;9234;49.344;11.120;2023-04-03T09:33:54;98412.00;;;9.20
18219;BMP180;9234;49.344;11.120;2023-04-03T09:36:44;98426.00;;;9.30
18219;BMP180;9234;49.344;11.120;2023-04-03T09:39:16;98407.00;;;9.30
18219;BMP180;9234;49.344;11.120;2023-04-03T09:41:59;98435.00;;;9.30
18219;BMP180;9234;49.344;11.120;2023-04-03T09:44:31;98418.00;;;9.20
18219;BMP180;9234;49.344;11.120;2023-04-03T09:47:19;98424.00;;;9.20
18219;BMP180;9234;49.344;11.120;2023-04-03T09:49:47;98431.00;;;9.30
18219;BMP180;9234;49.344;11.120;2023-04-03T09:52:24;98417.00;;;9.30
18219;BMP180;9234;49.344;11.120;2023-04-03T09:54:53;98432.00;;;9.30
18219;BMP180;9234;49.344;11.120;2023-04-03T09:57:21;98421.00;;;9.30
18219;BMP180;9234;49.344;11.120;2023-04-03T09:59:59;98436.00;;;9.30
18219;BMP180;9234;49.344;11.120;2023-04-03T10:02:37;98423.00;;;9.30
18219;BMP180;9234;49.344;11.120;2023-04-03T10:05:27;98436.00;;;9.40
18219;BMP180;9234;49.344;11.120;2023-04-03T10:08:22;98432.00;;;9.50
18219;BMP180;9234;49.344;11.120;2023-04-03T10:11:15;98423.00;;;9.50
18219;BMP180;9234;49.344;11.120;2023-04-03T10:13:57;98423.00;;;9.40
18219;BMP180;9234;49.344;11.120;2023-04-03T10:16:35;98422.00;;;9.30
18219;BMP180;9234;49.344;11.120;2023-04-03T10:19:34;98429.00;;;9.00
18219;BMP180;9234;49.344;11.120;2023-04-03T10:22:12;98423.00;;;9.00
18219;BMP180;9234;49.344;11.120;2023-04-03T10:24:54;98416.00;;;8.80
18219;BMP180;9234;49.344;11.120;2023-04-03T10:27:42;98410.00;;;8.80
18219;BMP180;9234;49.344;11.120;2023-04-03T10:30:30;98416.00;;;8.80
18219;BMP180;9234;49.344;11.120;2023-04-03T10:33:27;98417.00;;;8.90
18219;BMP180;9234;49.344;11.120;2023-04-03T10:36:10;98418.00;;;9.20
18219;BMP180;9234;49.344;11.120;2023-04-03T10:38:51;98405.00;;;9.90
18219;BMP180;9234;49.344;11.120;2023-04-03T10:41:38;98406.00;;;10.40
18219;BMP180;9234;49.344;11.120;2023-04-03T10:44:20;98407.00;;;10.90
18219;BMP180;9234;49.344;11.120;2023-04-03T10:47:02;98399.00;;;11.00
18219;BMP180;9234;49.344;11.120;2023-04-03T10:49:48;98391.00;;;11.10
18219;BMP180;9234;49.344;11.120;2023-04-03T10:52:34;98394.00;;;11.10
18219;BMP180;9234;49.344;11.120;2023-04-03T10:55:22;98389.00;;;11.10
18219;BMP180;9234;49.344;11.120;2023-04-03T10:57:56;98384.00;;;11.20
18219;BMP180;9234;49.344;11.120;2023-04-03T11:00:36;98395.00;;;11.10
18219;BMP180;9234;49.344;11.120;2023-04-03T11:03:13;98386.00;;;10.90
18219;BMP180;9234;49.344;11.120;2023-04-03T11:05:45;98378.00;;;10.80
18219;BMP180;9234;49.344;11.120;2023-04-03T11:08:27;98383.00;;;10.70
18219;BMP180;9234;49.344;11.120;2023-04-03T11:11:00;98387.00;;;10.50
18219;BMP180;9234;49.344;11.120;2023-04-03T11:13:35;98391.00;;;10.40
18219;BMP180;9234;49.344;11.120;2023-04-03T11:16:07;98382.00;;;10.40
18219;BMP180;9234;49.344;11.120;2023-04-03T11:18:41;98377.00;;;10.40
18219;BMP180;9234;49.344;11.120;2023-04-03T11:21:20;98373.00;;;10.40
18219;BMP180;9234;49.344;11.120;2023-04-03T11:23:51;98377.00;;;10.50
18219;BMP180;9234;49.344;11.120;2023-04-03T11:26:26;98376.00;;;10.70
18219;BMP180;9234;49.344;11.120;2023-04-03T11:29:01;98368.00;;;10.80
18219;BMP180;9234;49.344;11.120;2023-04-03T11:31:56;98370.00;;;10.80
18219;BMP180;9234;49.344;11.120;2023-04-03T11:34:35;98371.00;;;10.90
18219;BMP180;9234;49.344;11.120;2023-04-03T11:37:17;98372.00;;;11.00
18219;BMP180;9234;49.344;11.120;2023-04-03T11:39:56;98373.00;;;11.30
18219;BMP180;9234;49.344;11.120;2023-04-03T11:42:36;98378.00;;;11.60
18219;BMP180;9234;49.344;11.120;2023-04-03T11:45:53;98371.00;;;12.20
18219;BMP180;9234;49.344;11.120;2023-04-03T11:48:49;98366.00;;;12.70
18219;BMP180;9234;49.344;11.120;2023-04-03T11:51:43;98368.00;;;12.70
18219;BMP180;9234;49.344;11.120;2023-04-03T11:54:46;98365.00;;;12.40
18219;BMP180;9234;49.344;11.120;2023-04-03T11:58:01;98359.00;;;12.10
18219;BMP180;9234;49.344;11.120;2023-04-03T12:00:54;98345.00;;;12.10
18219;BMP180;9234;49.344;11.120;2023-04-03T12:04:05;98353.00;;;12.80
18219;BMP180;9234;49.344;11.120;2023-04-03T12:07:19;98350.00;;;14.00
18219;BMP180;9234;49.344;11.120;2023-04-03T12:09:59;98333.00;;;15.00
18219;BMP180;9234;49.344;11.120;2023-04-03T12:12:37;98335.00;;;15.60
18219;BMP180;9234;49.344;11.120;2023-04-03T12:15:38;98324.00;;;16.30
18219;BMP180;9234;49.344;11.120;2023-04-03T12:18:58;98334.00;;;16.90
18219;BMP180;9234;49.344;11.120;2023-04-03T12:22:13;98335.00;;;17.00
18219;BMP180;9234;49.344;11.120;2023-04-03T12:24:45;98322.00;;;16.20
18219;BMP180;9234;49.344;11.120;2023-04-03T12:27:38;98324.00;;;15.40
18219;BMP180;9234;49.344;11.120;2023-04-03T12:30:22;98328.00;;;14.50
18219;BMP180;9234;49.344;11.120;2023-04-03T12:33:20;98301.00;;;13.60
18219;BMP180;9234;49.344;11.120;2023-04-03T12:36:05;98302.00;;;13.10
18219;BMP180;9234;49.344;11.120;2023-04-03T12:39:02;98305.00;;;12.80
18219;BMP180;9234;49.344;11.120;2023-04-03T12:41:45;98306.00;;;13.10
18219;BMP180;9234;49.344;11.120;2023-04-03T12:44:38;98303.00;;;14.60
18219;BMP180;9234;49.344;11.120;2023-04-03T12:47:23;98297.00;;;16.30
18219;BMP180;9234;49.344;11.120;2023-04-03T12:49:53;98289.00;;;17.70
18219;BMP180;9234;49.344;11.120;2023-04-03T12:52:39;98297.00;;;18.10
18219;BMP180;9234;49.344;11.120;2023-04-03T12:55:19;98297.00;;;17.60
18219;BMP180;9234;49.344;11.120;2023-04-03T12:57:48;98300.00;;;17.10
18219;BMP180;9234;49.344;11.120;2023-04-03T13:00:31;98297.00;;;16.80
18219;BMP180;9234;49.344;11.120;2023-04-03T13:03:03;98296.00;;;17.50
18219;BMP180;9234;49.344;11.120;2023-04-03T13:05:33;98284.00;;;18.20
18219;BMP180;9234;49.344;11.120;2023-04-03T13:08:10;98278.00;;;18.50
18219;BMP180;9234;49.344;11.120;2023-04-03T13:10:55;98278.00;;;18.40
18219;BMP180;9234;49.344;11.120;2023-04-03T13:13:24;98282.00;;;18.20
18219;BMP180;9234;49.344;11.120;2023-04-03T13:15:54;98292.00;;;17.40
18219;BMP180;9234;49.344;11.120;2023-04-03T13:18:27;98302.00;;;16.40
18219;BMP180;9234;49.344;11.120;2023-04-03T13:21:01;98281.00;;;15.40
18219;BMP180;9234;49.344;11.120;2023-04-03T13:23:36;98294.00;;;14.80
18219;BMP180;9234;49.344;11.120;2023-04-03T13:26:07;98282.00;;;14.70
18219;BMP180;9234;49.344;11.120;2023-04-03T13:28:36;98284.00;;;15.60
18219;BMP180;9234;49.344;11.120;2023-04-03T13:31:18;98287.00;;;17.00
18219;BMP180;9234;49.344;11.120;2023-04-03T13:33:58;98269.00;;;18.50
18219;BMP180;9234;49.344;11.120;2023-04-03T13:36:32;98268.00;;;19.80
18219;BMP180;9234;49.344;11.120;2023-04-03T13:39:24;98263.00;;;20.60
18219;BMP180;9234;49.344;11.120;2023-04-03T13:41:56;98260.00;;;21.40
18219;BMP180;9234;49.344;11.120;2023-04-03T13:44:31;98268.00;;;22.10
18219;BMP180;9234;49.344;11.120;2023-04-03T13:47:15;98264.00;;;22.90
18219;BMP180;9234;49.344;11.120;2023-04-03T13:49:46;98278.00;;;22.60
18219;BMP180;9234;49.344;11.120;2023-04-03T13:52:30;98268.00;;;20.90
18219;BMP180;9234;49.344;11.120;2023-04-03T13:55:17;98281.00;;;19.30
18219;BMP180;9234;49.344;11.120;2023-04-03T13:58:21;98272.00;;;17.80
18219;BMP180;9234;49.344;11.120;2023-04-03T14:00:53;98266.00;;;17.00
18219;BMP180;9234;49.344;11.120;2023-04-03T14:03:25;98273.00;;;17.40
18219;BMP180;9234;49.344;11.120;2023-04-03T14:05:54;98274.00;;;19.00
18219;BMP180;9234;49.344;11.120;2023-04-03T14:08:23;98260.00;;;20.20
18219;BMP180;9234;49.344;11.120;2023-04-03T14:11:14;98264.00;;;20.00
18219;BMP180;9234;49.344;11.120;2023-04-03T14:13:43;98271.00;;;19.00
18219;BMP180;9234;49.344;11.120;2023-04-03T14:16:16;98266.00;;;17.90
18219;BMP180;9234;49.344;11.120;2023-04-03T14:18:47;98266.00;;;16.90
18219;BMP180;9234;49.344;11.120;2023-04-03T14:21:18;98270.00;;;16.00
18219;BMP180;9234;49.344;11.120;2023-04-03T14:23:48;98270.00;;;16.30
18219;BMP180;9234;49.344;11.120;2023-04-03T14:26:22;98269.00;;;17.00
18219;BMP180;9234;49.344;11.120;2023-04-03T14:28:53;98250.00;;;17.50
18219;BMP180;9234;49.344;11.120;2023-04-03T14:31:22;98262.00;;;18.80
18219;BMP180;9234;49.344;11.120;2023-04-03T14:33:51;98259.00;;;20.10
18219;BMP180;9234;49.344;11.120;2023-04-03T14:36:24;98250.00;;;20.60
18219;BMP180;9234;49.344;11.120;2023-04-03T14:38:54;98252.00;;;20.00
18219;BMP180;9234;49.344;11.120;2023-04-03T14:41:26;98259.00;;;18.80
18219;BMP180;9234;49.344;11.120;2023-04-03T14:43:57;98267.00;;;17.60
18219;BMP180;9234;49.344;11.120;2023-04-03T14:46:30;98251.00;;;16.60
18219;BMP180;9234;49.344;11.120;2023-04-03T14:49:22;98259.00;;;15.60
18219;BMP180;9234;49.344;11.120;2023-04-03T14:51:52;98258.00;;;14.90
18219;BMP180;9234;49.344;11.120;2023-04-03T14:54:24;98256.00;;;14.70
18219;BMP180;9234;49.344;11.120;2023-04-03T14:56:59;98251.00;;;16.00
18219;BMP180;9234;49.344;11.120;2023-04-03T14:59:30;98241.00;;;17.60
18219;BMP180;9234;49.344;11.120;2023-04-03T15:01:59;98239.00;;;18.70
18219;BMP180;9234;49.344;11.120;2023-04-03T15:04:27;98250.00;;;18.30
18219;BMP180;9234;49.344;11.120;2023-04-03T15:06:56;98233.00;;;17.50